Time;durP1;ratioP1;P1;durP2;ratioP2;P2;SDS_P1;SDS_P2;PMS_P1;PMS_P2;Temp;Humidity;BMP_temperature;BMP_pressure;BME280_temperature;BME280_humidity;BME280_pressure;Samples;Min_cycle;Max_cycle;Signal;HPM_P1;HPM_P2
2022/07/07 00:01:29;;;;;;;0.40;0.40;;;13.40;71.10;13.40;100995.00;;;;4895456;28;120688;-62
2022/07/07 00:03:56;;;;;;;0.50;0.40;;;13.40;71.80;13.40;100988.00;;;;4897557;28;93086;-62
2022/07/07 00:06:21;;;;;;;0.50;0.40;;;13.40;72.30;13.30;100990.00;;;;4896716;28;92830;-63
2022/07/07 00:08:47;;;;;;;0.73;0.40;;;13.30;72.90;13.30;100987.00;;;;4896409;28;122659;-62
2022/07/07 00:11:15;;;;;;;0.87;0.37;;;13.30;73.50;13.30;100982.00;;;;4895591;28;122388;-62
2022/07/07 00:13:41;;;;;;;0.63;0.47;;;13.20;74.10;13.20;100981.00;;;;4897310;28;92035;-62
2022/07/07 00:16:07;;;;;;;0.53;0.50;;;13.20;74.80;13.20;100971.00;;;;4896420;28;92723;-62
2022/07/07 00:18:34;;;;;;;2.10;0.60;;;13.20;75.50;13.20;100968.00;;;;4896600;28;93416;-62
2022/07/07 00:21:00;;;;;;;0.27;0.27;;;13.10;76.10;13.20;100966.00;;;;4896152;28;93856;-62
2022/07/07 00:23:26;;;;;;;0.30;0.30;;;13.10;76.50;13.20;100964.00;;;;4896858;28;92659;-62
2022/07/07 00:25:52;;;;;;;0.30;0.30;;;13.10;77.10;13.20;100967.00;;;;4896360;28;92963;-62
2022/07/07 00:28:18;;;;;;;0.13;0.13;;;13.20;77.80;13.20;100972.00;;;;4895971;28;122866;-62
2022/07/07 00:30:44;;;;;;;1.37;0.83;;;13.20;78.90;13.20;100966.00;;;;4894753;28;122146;-62
2022/07/07 00:33:09;;;;;;;0.27;0.27;;;13.10;79.40;13.20;100957.00;;;;4895975;28;110426;-62
2022/07/07 00:35:35;;;;;;;1.73;0.43;;;13.10;80.70;13.20;100968.00;;;;4896548;28;92846;-62
2022/07/07 00:38:02;;;;;;;0.43;0.40;;;13.10;81.40;13.20;100955.00;;;;4896087;28;92941;-62
2022/07/07 00:40:27;;;;;;;2.07;0.73;;;13.10;82.30;13.10;100964.00;;;;4896252;28;93120;-62
2022/07/07 00:42:53;;;;;;;0.73;0.40;;;13.10;82.50;13.20;100960.00;;;;4895977;28;110954;-62
2022/07/07 00:45:19;;;;;;;0.30;0.30;;;13.10;82.70;13.20;100957.00;;;;4895194;28;108289;-62
2022/07/07 00:47:45;;;;;;;0.73;0.57;;;13.10;83.20;13.20;100952.00;;;;4895903;28;124293;-61
2022/07/07 00:50:11;;;;;;;0.40;0.30;;;13.10;84.50;13.20;100958.00;;;;4895915;28;94050;-62
2022/07/07 00:52:37;;;;;;;0.20;0.20;;;13.10;84.80;13.20;100954.00;;;;4896117;28;93689;-62
2022/07/07 00:55:03;;;;;;;0.40;0.40;;;13.10;85.00;13.20;100958.00;;;;4895292;28;107967;-61
2022/07/07 00:57:30;;;;;;;0.20;0.20;;;13.20;84.90;13.30;100943.00;;;;4894342;28;93578;-62
2022/07/07 01:00:04;;;;;;;2.50;0.60;;;13.20;85.20;13.30;100950.00;;;;4895103;28;122606;-62
2022/07/07 01:02:31;;;;;;;1.27;0.50;;;13.20;85.40;13.30;100944.00;;;;4892862;28;92256;-62
2022/07/07 01:05:02;;;;;;;0.70;0.40;;;13.20;86.10;13.30;100941.00;;;;4897013;28;93019;-62
2022/07/07 01:07:30;;;;;;;0.93;0.50;;;13.20;86.40;13.30;100942.00;;;;4894727;28;109597;-62
2022/07/07 01:09:58;;;;;;;0.80;0.40;;;13.20;87.00;13.30;100930.00;;;;4894419;28;113979;-62
2022/07/07 01:12:24;;;;;;;0.73;0.70;;;13.20;87.40;13.30;100940.00;;;;4896228;28;92856;-62
2022/07/07 01:14:49;;;;;;;0.50;0.50;;;13.20;88.00;13.30;100931.00;;;;4896281;28;92668;-62
2022/07/07 01:17:15;;;;;;;0.87;0.43;;;13.20;88.30;13.20;100931.00;;;;4894782;28;104538;-62
2022/07/07 01:19:41;;;;;;;0.60;0.60;;;13.20;89.00;13.20;100925.00;;;;4896109;28;96918;-62
2022/07/07 01:22:13;;;;;;;1.53;0.60;;;13.10;89.20;13.20;100930.00;;;;4896588;28;93401;-62
2022/07/07 01:24:39;;;;;;;0.90;0.50;;;13.10;89.40;13.20;100924.00;;;;4878461;28;92960;-62
2022/07/07 01:27:13;;;;;;;0.30;0.30;;;13.10;90.00;13.20;100925.00;;;;4896081;28;92635;-62
2022/07/07 01:29:41;;;;;;;0.50;0.40;;;13.10;89.90;13.20;100921.00;;;;4895127;28;93116;-62
2022/07/07 01:32:08;;;;;;;1.27;0.53;;;13.10;89.90;13.20;100917.00;;;;4896071;28;92960;-61
2022/07/07 01:34:35;;;;;;;0.63;0.47;;;13.10;90.10;13.20;100912.00;;;;4895534;28;93660;-62
2022/07/07 01:37:01;;;;;;;0.30;0.30;;;13.10;90.10;13.20;100913.00;;;;4895232;28;94390;-62
2022/07/07 01:39:27;;;;;;;1.80;0.87;;;13.30;90.20;13.20;100919.00;;;;4894997;28;104556;-62
2022/07/07 01:41:53;;;;;;;6.43;0.97;;;13.10;90.10;13.20;100920.00;;;;4895194;28;110869;-62
2022/07/07 01:44:19;;;;;;;0.50;0.40;;;13.10;90.20;13.20;100915.00;;;;4896468;28;107835;-62
2022/07/07 01:46:44;;;;;;;0.40;0.40;;;13.10;90.20;13.20;100907.00;;;;4898041;28;120446;-62
2022/07/07 01:49:11;;;;;;;0.20;0.20;;;13.20;90.20;13.20;100913.00;;;;4894488;28;122913;-62
2022/07/07 01:51:37;;;;;;;0.30;0.30;;;12.90;90.10;13.30;100912.00;;;;4896289;28;92568;-62
2022/07/07 01:54:03;;;;;;;0.17;0.17;;;13.20;90.20;13.30;100909.00;;;;4894208;28;109101;-62
2022/07/07 01:56:28;;;;;;;5.40;0.40;;;13.20;90.30;13.30;100908.00;;;;4894536;28;122475;-62
2022/07/07 01:58:54;;;;;;;0.30;0.30;;;13.20;90.30;13.30;100899.00;;;;4894807;28;100691;-62
2022/07/07 02:01:20;;;;;;;0.47;0.47;;;13.30;90.50;13.30;100902.00;;;;4894205;28;110329;-62
2022/07/07 02:03:45;;;;;;;0.50;0.50;;;13.30;90.50;13.30;100902.00;;;;4895846;28;93074;-62
2022/07/07 02:06:11;;;;;;;0.13;0.13;;;13.30;90.60;13.40;100895.00;;;;4894627;28;122121;-62
2022/07/07 02:08:37;;;;;;;6.53;0.83;;;13.30;90.60;13.40;100898.00;;;;4893537;28;120702;-62
2022/07/07 02:11:15;;;;;;;0.20;0.10;;;13.30;90.60;13.40;100899.00;;;;4894984;28;97053;-62
2022/07/07 02:13:47;;;;;;;0.77;0.50;;;13.30;90.60;13.40;100889.00;;;;4895091;28;92851;-62
2022/07/07 02:16:13;;;;;;;2.17;0.30;;;13.40;90.70;13.50;100893.00;;;;4895829;28;92717;-62
2022/07/07 02:18:41;;;;;;;0.40;0.30;;;13.40;90.80;13.50;100898.00;;;;4894956;28;92799;-62
2022/07/07 02:21:08;;;;;;;0.40;0.37;;;13.40;90.90;13.50;100893.00;;;;4895544;28;92747;-62
2022/07/07 02:23:36;;;;;;;0.30;0.30;;;13.40;90.90;13.50;100894.00;;;;4894951;28;93799;-62
2022/07/07 02:26:02;;;;;;;0.93;0.53;;;13.40;91.00;13.50;100891.00;;;;4894537;28;94023;-62
2022/07/07 02:28:28;;;;;;;0.60;0.40;;;13.40;91.10;13.50;100895.00;;;;4894642;28;94081;-62
2022/07/07 02:30:54;;;;;;;0.20;0.20;;;13.40;91.00;13.60;100887.00;;;;4895522;28;92525;-62
2022/07/07 02:33:21;;;;;;;0.10;0.10;;;13.50;91.20;13.60;100889.00;;;;4894403;28;98831;-62
2022/07/07 02:35:48;;;;;;;1.70;0.40;;;13.50;91.20;13.60;100883.00;;;;4894593;28;93650;-62
2022/07/07 02:38:14;;;;;;;0.47;0.30;;;13.50;91.20;13.60;100890.00;;;;4876808;28;95188;-62
2022/07/07 02:40:41;;;;;;;0.30;0.30;;;13.50;91.40;13.60;100881.00;;;;4895026;28;91989;-62
2022/07/07 02:43:12;;;;;;;0.27;0.27;;;13.50;91.30;13.60;100885.00;;;;4895322;28;92623;-61
2022/07/07 02:45:42;;;;;;;0.40;0.40;;;13.50;91.40;13.70;100879.00;;;;4894926;28;93778;-62
2022/07/07 02:48:09;;;;;;;0.40;0.37;;;13.60;91.30;13.70;100875.00;;;;4892971;28;114210;-62
2022/07/07 02:50:36;;;;;;;1.50;0.60;;;13.60;91.40;13.70;100877.00;;;;4894579;28;92919;-60
2022/07/07 02:53:02;;;;;;;0.60;0.60;;;13.60;91.40;13.70;100871.00;;;;4895517;28;92499;-62
2022/07/07 02:55:28;;;;;;;0.50;0.40;;;13.60;91.40;13.80;100871.00;;;;4894149;28;93055;-62
2022/07/07 02:57:54;;;;;;;0.43;0.33;;;13.70;91.40;13.80;100861.00;;;;4893709;28;94728;-62
2022/07/07 03:00:20;;;;;;;1.70;0.30;;;13.70;91.30;13.80;100874.00;;;;4893269;28;110315;-62
2022/07/07 03:02:45;;;;;;;1.03;0.67;;;13.70;91.30;13.80;100874.00;;;;4893899;28;108377;-62
2022/07/07 03:05:11;;;;;;;0.27;0.27;;;13.70;91.20;13.90;100872.00;;;;4893676;28;122452;-62
2022/07/07 03:07:38;;;;;;;0.40;0.27;;;13.80;91.40;13.90;100873.00;;;;4893367;28;114923;-62
2022/07/07 03:10:06;;;;;;;0.70;0.40;;;13.80;91.30;13.90;100869.00;;;;4892860;28;110822;-61
2022/07/07 03:12:32;;;;;;;0.20;0.20;;;13.80;91.40;13.90;100872.00;;;;4894727;28;93850;-62
2022/07/07 03:14:58;;;;;;;0.50;0.47;;;13.80;91.40;14.00;100868.00;;;;4893582;28;94173;-61
2022/07/07 03:17:24;;;;;;;0.60;0.30;;;13.80;91.30;14.00;100867.00;;;;4893082;28;123419;-62
2022/07/07 03:19:50;;;;;;;0.30;0.30;;;13.80;91.40;14.00;100882.00;;;;4891967;28;109207;-62
2022/07/07 03:22:15;;;;;;;0.70;0.40;;;13.90;91.30;14.00;100891.00;;;;4894145;28;92961;-61
2022/07/07 03:24:41;;;;;;;0.20;0.20;;;13.90;91.30;14.10;100884.00;;;;4893204;28;122812;-62
2022/07/07 03:27:07;;;;;;;0.20;0.20;;;14.00;91.30;14.10;100894.00;;;;4892782;28;123106;-62
2022/07/07 03:29:33;;;;;;;0.20;0.20;;;14.00;91.40;14.10;100894.00;;;;4895146;28;92243;-63
2022/07/07 03:31:59;;;;;;;0.57;0.20;;;14.00;91.50;14.00;100899.00;;;;4894002;28;93089;-62
2022/07/07 03:34:25;;;;;;;0.30;0.30;;;14.00;92.00;13.90;100900.00;;;;4892888;28;123319;-62
2022/07/07 03:36:51;;;;;;;0.40;0.40;;;13.80;92.50;13.70;100887.00;;;;4892857;28;111542;-61
2022/07/07 03:39:16;;;;;;;0.30;0.27;;;13.70;93.70;13.50;100895.00;;;;4893233;28;92858;-62
2022/07/07 03:41:42;;;;;;;0.47;0.40;;;13.60;94.60;13.30;100901.00;;;;4893928;28;93113;-61
2022/07/07 03:44:08;;;;;;;1.13;0.67;;;13.40;95.40;13.20;100891.00;;;;4893713;28;92958;-60
2022/07/07 03:46:33;;;;;;;0.97;0.20;;;13.20;96.10;13.10;100887.00;;;;4892771;28;120517;-60
2022/07/07 03:48:59;;;;;;;0.27;0.20;;;13.10;96.90;13.00;100890.00;;;;4892238;28;98698;-62
2022/07/07 03:51:25;;;;;;;0.40;0.40;;;13.00;97.80;12.90;100905.00;;;;4893284;28;107373;-61
2022/07/07 03:53:51;;;;;;;0.23;0.23;;;12.90;98.90;12.80;100898.00;;;;4894131;28;92821;-61
2022/07/07 03:56:17;;;;;;;0.60;0.30;;;12.80;99.90;12.80;100889.00;;;;4892094;28;123158;-60
2022/07/07 03:58:42;;;;;;;0.53;0.47;;;12.80;99.90;12.70;100883.00;;;;4892628;28;110492;-61
2022/07/07 04:01:08;;;;;;;0.50;0.40;;;12.70;99.90;12.60;100896.00;;;;4907063;28;94018;-59
2022/07/07 04:03:34;;;;;;;1.10;0.40;;;12.60;99.90;12.50;100901.00;;;;4892653;28;122805;-60
2022/07/07 04:06:00;;;;;;;2.67;0.90;;;12.50;99.90;12.40;100895.00;;;;4892189;28;106844;-60
2022/07/07 04:08:25;;;;;;;0.43;0.43;;;12.50;99.90;12.30;100888.00;;;;4894141;28;92737;-59
2022/07/07 04:10:51;;;;;;;0.63;0.63;;;12.40;99.90;12.30;100881.00;;;;4893798;28;92786;-61
2022/07/07 04:13:17;;;;;;;0.37;0.33;;;12.30;99.90;12.20;100889.00;;;;4893075;28;94011;-61
2022/07/07 04:15:43;;;;;;;1.10;0.80;;;12.30;99.90;12.10;100886.00;;;;4891908;28;122847;-61
2022/07/07 04:18:09;;;;;;;2.23;0.93;;;12.20;99.90;12.10;100882.00;;;;4893104;28;110379;-61
2022/07/07 04:20:35;;;;;;;0.40;0.40;;;12.10;99.90;12.10;100883.00;;;;4892848;28;92907;-60
2022/07/07 04:23:00;;;;;;;0.53;0.53;;;12.10;99.90;12.00;100873.00;;;;4892414;28;122274;-61
2022/07/07 04:25:26;;;;;;;1.17;0.87;;;12.00;99.90;12.00;100881.00;;;;4891397;28;122249;-61
2022/07/07 04:27:52;;;;;;;3.37;0.80;;;12.00;99.90;11.90;100880.00;;;;4893362;28;92772;-61
2022/07/07 04:30:17;;;;;;;1.10;0.73;;;11.90;99.90;11.90;100875.00;;;;4892797;28;106861;-61
2022/07/07 04:32:43;;;;;;;1.23;0.73;;;11.90;99.90;11.90;100873.00;;;;4895364;28;121012;-61
2022/07/07 04:35:09;;;;;;;0.77;0.77;;;11.90;99.90;11.90;100873.00;;;;4894795;28;122317;-60
2022/07/07 04:37:35;;;;;;;1.90;1.40;;;11.90;99.90;12.00;100876.00;;;;4896974;28;93027;-61
2022/07/07 04:40:03;;;;;;;0.47;0.47;;;11.90;99.90;12.00;100873.00;;;;4895543;28;94206;-61
2022/07/07 04:42:29;;;;;;;0.53;0.53;;;11.90;99.90;12.00;100878.00;;;;4896736;28;93330;-61
2022/07/07 04:44:55;;;;;;;0.87;0.50;;;11.90;99.90;12.00;100861.00;;;;4895768;28;95914;-62
2022/07/07 04:47:20;;;;;;;3.03;1.30;;;11.90;99.90;12.00;100866.00;;;;4896162;28;95795;-61
2022/07/07 04:49:46;;;;;;;1.27;0.93;;;12.00;99.90;12.00;100855.00;;;;4895164;28;93780;-63
2022/07/07 04:52:12;;;;;;;3.07;1.03;;;12.00;99.90;12.10;100859.00;;;;4895245;28;122736;-62
2022/07/07 04:54:37;;;;;;;0.67;0.67;;;12.00;99.90;12.10;100852.00;;;;4895080;28;121759;-62
2022/07/07 04:57:03;;;;;;;0.83;0.83;;;12.00;99.90;12.10;100847.00;;;;4894862;28;111039;-62
2022/07/07 04:59:29;;;;;;;1.40;1.30;;;12.00;99.90;12.10;100856.00;;;;4895487;28;98575;-62
2022/07/07 05:01:55;;;;;;;2.10;1.47;;;12.10;99.90;12.10;100855.00;;;;4895795;28;123352;-62
2022/07/07 05:04:20;;;;;;;0.60;0.50;;;12.00;99.90;12.10;100854.00;;;;4894860;28;120425;-62
2022/07/07 05:06:46;;;;;;;0.60;0.60;;;12.00;99.90;12.10;100843.00;;;;4896607;28;92189;-62
2022/07/07 05:09:12;;;;;;;1.80;0.87;;;12.10;99.90;12.20;100853.00;;;;4895823;28;104078;-62
2022/07/07 05:11:38;;;;;;;0.73;0.73;;;12.10;99.90;12.20;100844.00;;;;4894295;28;123312;-63
2022/07/07 05:14:03;;;;;;;1.50;1.07;;;12.10;99.90;12.20;100848.00;;;;4895179;28;121218;-62
2022/07/07 05:16:30;;;;;;;0.73;0.70;;;12.20;99.90;12.30;100838.00;;;;4895541;28;109266;-62
2022/07/07 05:18:56;;;;;;;1.70;0.97;;;12.20;99.90;12.30;100838.00;;;;4896051;28;92868;-63
2022/07/07 05:21:22;;;;;;;0.73;0.73;;;12.20;99.90;12.30;100836.00;;;;4895882;28;122739;-63
2022/07/07 05:23:48;;;;;;;0.97;0.93;;;12.20;99.90;12.30;100835.00;;;;4894999;28;122019;-62
2022/07/07 05:26:14;;;;;;;1.47;1.20;;;12.30;99.90;12.30;100831.00;;;;4894773;28;109495;-62
2022/07/07 05:28:43;;;;;;;1.83;0.80;;;12.30;99.90;12.40;100844.00;;;;4895776;28;92753;-62
2022/07/07 05:31:10;;;;;;;1.47;1.13;;;12.30;99.90;12.40;100844.00;;;;4895285;28;92310;-61
2022/07/07 05:33:36;;;;;;;1.30;1.20;;;12.30;99.90;12.40;100837.00;;;;4894021;28;112019;-61
2022/07/07 05:36:04;;;;;;;1.30;1.10;;;12.40;99.90;12.50;100844.00;;;;4894145;28;105284;-61
2022/07/07 05:38:30;;;;;;;1.93;1.10;;;12.40;99.90;12.50;100845.00;;;;4894679;28;94197;-61
2022/07/07 05:40:56;;;;;;;1.43;0.70;;;12.40;99.90;12.60;100848.00;;;;4894079;28;114932;-61
2022/07/07 05:43:22;;;;;;;1.30;1.10;;;12.40;99.90;12.60;100844.00;;;;4893031;28;97072;-62
2022/07/07 05:45:48;;;;;;;2.93;1.07;;;12.50;99.90;12.60;100849.00;;;;4893423;28;99742;-61
2022/07/07 05:48:13;;;;;;;1.00;0.90;;;12.50;99.90;12.70;100844.00;;;;4894399;28;109011;-61
2022/07/07 05:50:39;;;;;;;1.30;1.20;;;12.60;99.90;12.70;100835.00;;;;4892097;28;93662;-62
2022/07/07 05:53:05;;;;;;;1.37;1.13;;;12.60;99.90;12.80;100835.00;;;;4893877;28;121285;-62
2022/07/07 05:55:30;;;;;;;0.73;0.73;;;12.70;99.90;12.80;100830.00;;;;4894704;28;91888;-61
2022/07/07 05:57:57;;;;;;;1.13;0.73;;;12.70;99.90;12.90;100839.00;;;;4894895;28;92785;-62
2022/07/07 06:00:23;;;;;;;2.83;1.13;;;12.80;99.90;12.90;100835.00;;;;4892806;28;114546;-60
2022/07/07 06:02:49;;;;;;;1.10;1.00;;;12.80;99.90;12.90;100834.00;;;;4892822;28;94169;-62
2022/07/07 06:05:16;;;;;;;1.23;0.80;;;12.80;99.90;13.00;100828.00;;;;4893649;28;93098;-62
2022/07/07 06:07:42;;;;;;;1.30;1.20;;;12.90;99.90;13.00;100833.00;;;;4894775;28;92875;-62
2022/07/07 06:10:10;;;;;;;1.30;1.20;;;12.90;99.90;13.10;100838.00;;;;4893651;28;101819;-62
2022/07/07 06:12:36;;;;;;;12.27;1.20;;;13.00;99.90;13.20;100827.00;;;;4893930;28;94052;-61
2022/07/07 06:15:03;;;;;;;0.60;0.60;;;13.00;99.90;13.20;100827.00;;;;4890781;28;103472;-62
2022/07/07 06:17:29;;;;;;;1.13;1.03;;;13.10;99.90;13.30;100832.00;;;;4896166;28;93093;-61
2022/07/07 06:19:54;;;;;;;1.07;0.97;;;13.20;99.90;13.40;100829.00;;;;4893966;28;92910;-62
2022/07/07 06:22:20;;;;;;;2.97;0.93;;;13.20;99.90;13.40;100825.00;;;;4892832;28;119490;-62
2022/07/07 06:24:46;;;;;;;2.00;0.97;;;13.30;99.90;13.50;100820.00;;;;4892514;28;108885;-62
2022/07/07 06:27:11;;;;;;;0.60;0.60;;;13.30;99.90;13.60;100820.00;;;;4874382;28;108892;-62
2022/07/07 06:29:37;;;;;;;0.97;0.77;;;13.40;99.90;13.60;100811.00;;;;4893600;28;93918;-61
2022/07/07 06:32:03;;;;;;;3.40;1.53;;;13.50;99.90;13.70;100812.00;;;;4894163;28;92877;-61
2022/07/07 06:34:29;;;;;;;1.97;1.47;;;13.60;99.90;13.80;100808.00;;;;4891659;28;98843;-62
2022/07/07 06:36:55;;;;;;;2.40;1.77;;;13.70;99.90;13.80;100810.00;;;;4894591;28;92800;-62
2022/07/07 06:39:21;;;;;;;1.10;0.80;;;13.70;99.90;13.90;100806.00;;;;4892642;28;122849;-62
2022/07/07 06:41:47;;;;;;;0.50;0.43;;;13.80;99.90;13.90;100809.00;;;;4890940;28;121694;-61
2022/07/07 06:44:13;;;;;;;2.37;1.27;;;13.80;99.90;13.90;100803.00;;;;4892543;28;92336;-62
2022/07/07 06:46:41;;;;;;;1.30;1.17;;;13.80;99.90;14.00;100802.00;;;;4894456;28;92952;-62
2022/07/07 06:49:08;;;;;;;1.03;0.97;;;13.80;99.90;14.00;100797.00;;;;4894437;28;92847;-61
2022/07/07 06:51:33;;;;;;;0.50;0.40;;;13.90;99.90;14.00;100794.00;;;;4893770;28;93833;-61
2022/07/07 06:53:59;;;;;;;1.67;1.13;;;13.90;99.90;14.10;100794.00;;;;4875164;28;111154;-62
2022/07/07 06:56:25;;;;;;;1.13;0.80;;;13.90;99.90;14.10;100784.00;;;;4880711;28;92777;-61
2022/07/07 06:58:51;;;;;;;0.83;0.70;;;14.00;99.90;14.20;100784.00;;;;4855952;28;93677;-61
2022/07/07 07:01:17;;;;;;;0.80;0.80;;;14.00;99.90;14.20;100785.00;;;;4854904;28;122491;-62
2022/07/07 07:03:43;;;;;;;1.03;0.93;;;14.10;99.90;14.20;100788.00;;;;4873222;28;92839;-61
2022/07/07 07:06:09;;;;;;;1.30;0.90;;;14.10;99.90;14.30;100792.00;;;;4892271;28;93628;-61
2022/07/07 07:08:35;;;;;;;2.23;0.97;;;14.20;99.90;14.40;100788.00;;;;4893818;28;92573;-62
2022/07/07 07:11:02;;;;;;;1.20;1.00;;;14.30;99.90;14.50;100786.00;;;;4882220;28;121755;-61
2022/07/07 07:13:29;;;;;;;1.20;1.07;;;14.30;99.90;14.60;100784.00;;;;4878771;28;92798;-61
2022/07/07 07:15:55;;;;;;;2.63;1.17;;;14.40;99.90;14.70;100787.00;;;;4892588;28;94042;-61
2022/07/07 07:18:20;;;;;;;2.70;0.80;;;14.60;99.90;14.80;100797.00;;;;4893081;28;121681;-64
2022/07/07 07:20:46;;;;;;;1.83;1.10;;;14.60;99.90;14.80;100793.00;;;;4886224;28;123564;-62
2022/07/07 07:23:12;;;;;;;0.77;0.77;;;14.70;99.90;14.90;100796.00;;;;4890563;28;110391;-61
2022/07/07 07:25:37;;;;;;;1.80;1.30;;;14.70;99.90;14.80;100792.00;;;;4874953;28;92947;-62
2022/07/07 07:28:03;;;;;;;1.23;0.93;;;14.70;99.90;14.80;100796.00;;;;4873693;28;123457;-62
2022/07/07 07:30:29;;;;;;;1.50;1.23;;;14.70;99.90;14.80;100797.00;;;;4882028;28;111075;-62
2022/07/07 07:32:55;;;;;;;6.07;1.10;;;14.70;99.90;14.70;100786.00;;;;4877770;28;111578;-62
2022/07/07 07:35:21;;;;;;;1.13;0.80;;;14.60;99.90;14.60;100782.00;;;;4867840;28;109009;-62
2022/07/07 07:37:46;;;;;;;4.97;1.20;;;14.60;99.90;14.60;100781.00;;;;4892562;28;123598;-63
2022/07/07 07:40:12;;;;;;;3.70;1.20;;;14.50;99.90;14.50;100789.00;;;;4891163;28;118203;-63
2022/07/07 07:42:39;;;;;;;4.43;1.47;;;14.40;99.90;14.50;100781.00;;;;4894070;28;93427;-63
2022/07/07 07:45:10;;;;;;;0.77;0.77;;;14.40;99.90;14.40;100777.00;;;;4875535;28;92972;-63
2022/07/07 07:47:43;;;;;;;1.83;1.43;;;14.30;99.90;14.40;100760.00;;;;4893445;28;93745;-62
2022/07/07 07:50:12;;;;;;;1.10;0.90;;;14.30;99.90;14.30;100771.00;;;;4892538;28;93747;-62
2022/07/07 07:52:39;;;;;;;1.33;1.10;;;14.20;99.90;14.30;100772.00;;;;4875444;28;92947;-60
2022/07/07 07:55:10;;;;;;;1.80;1.10;;;14.20;99.90;14.20;100769.00;;;;4893535;28;93230;-62
2022/07/07 07:57:36;;;;;;;1.40;1.20;;;14.30;99.90;14.20;100767.00;;;;4893991;28;93038;-62
2022/07/07 08:00:08;;;;;;;1.43;1.20;;;14.10;99.90;14.20;100769.00;;;;4892568;28;93131;-62
2022/07/07 08:02:34;;;;;;;1.93;1.27;;;14.10;99.90;14.20;100769.00;;;;4893842;28;92601;-62
2022/07/07 08:05:01;;;;;;;1.37;0.90;;;14.10;99.90;14.10;100758.00;;;;4891851;28;100736;-62
2022/07/07 08:07:27;;;;;;;1.93;0.93;;;14.10;99.90;14.10;100758.00;;;;4896241;28;93787;-63
2022/07/07 08:09:53;;;;;;;1.23;1.07;;;14.00;99.90;14.10;100756.00;;;;4896153;28;122749;-64
2022/07/07 08:12:18;;;;;;;1.03;0.80;;;14.00;99.90;14.10;100748.00;;;;4895942;28;109190;-64
2022/07/07 08:14:44;;;;;;;1.33;1.23;;;14.00;99.90;14.10;100759.00;;;;4896639;28;92799;-64
2022/07/07 08:17:10;;;;;;;1.77;1.30;;;14.00;99.90;14.10;100754.00;;;;4894626;28;124001;-64
2022/07/07 08:19:35;;;;;;;1.13;0.97;;;14.00;99.90;14.10;100751.00;;;;4895897;28;94939;-63
2022/07/07 08:22:01;;;;;;;0.80;0.73;;;14.00;99.90;14.10;100757.00;;;;4896591;28;108741;-63
2022/07/07 08:24:27;;;;;;;1.13;1.07;;;14.00;99.90;14.10;100757.00;;;;4896575;28;93501;-63
2022/07/07 08:26:53;;;;;;;2.77;1.63;;;14.00;99.90;14.20;100759.00;;;;4894108;28;122577;-63
2022/07/07 08:29:19;;;;;;;1.50;1.40;;;14.10;99.90;14.20;100763.00;;;;4893231;28;111701;-64
2022/07/07 08:31:45;;;;;;;1.63;1.40;;;14.00;99.90;14.10;100751.00;;;;4895626;28;107879;-63
2022/07/07 08:34:11;;;;;;;1.03;0.93;;;14.00;99.90;14.10;100752.00;;;;4896103;28;93067;-64
2022/07/07 08:36:37;;;;;;;2.63;1.10;;;14.00;99.90;14.10;100750.00;;;;4895041;28;93847;-63
2022/07/07 08:39:03;;;;;;;4.60;1.33;;;14.00;99.90;14.10;100750.00;;;;4887911;28;93135;-63
2022/07/07 08:41:29;;;;;;;1.67;1.50;;;14.00;99.90;14.10;100752.00;;;;4896697;28;97551;-63
2022/07/07 08:43:57;;;;;;;1.40;1.30;;;14.00;99.90;14.10;100748.00;;;;4896297;28;107941;-64
2022/07/07 08:46:23;;;;;;;1.93;1.30;;;14.00;99.90;14.20;100750.00;;;;4896199;28;93033;-64
2022/07/07 08:48:51;;;;;;;1.50;1.40;;;14.00;99.90;14.20;100738.00;;;;4881423;28;123438;-65
2022/07/07 08:51:16;;;;;;;1.93;1.43;;;14.10;99.90;14.30;100746.00;;;;4886851;28;92858;-65
2022/07/07 08:53:46;;;;;;;1.70;1.60;;;14.10;99.90;14.30;100748.00;;;;4895636;28;102848;-65
2022/07/07 08:56:12;;;;;;;1.00;0.93;;;14.20;99.90;14.30;100744.00;;;;4885957;28;93099;-65
2022/07/07 08:58:39;;;;;;;1.60;1.30;;;14.20;99.90;14.40;100733.00;;;;4858196;28;95496;-65
2022/07/07 09:01:06;;;;;;;1.30;1.00;;;14.30;99.90;14.50;100741.00;;;;4884821;28;104136;-65
2022/07/07 09:03:33;;;;;;;2.10;1.63;;;14.30;99.90;14.60;100744.00;;;;4886411;28;92983;-64
2022/07/07 09:06:00;;;;;;;1.60;1.50;;;14.40;99.90;14.60;100742.00;;;;4879951;28;114354;-65
2022/07/07 09:08:27;;;;;;;1.93;1.60;;;14.50;99.90;14.80;100733.00;;;;4876771;28;93433;-65
2022/07/07 09:10:53;;;;;;;2.07;1.33;;;14.60;99.90;14.80;100739.00;;;;4877359;28;92422;-64
2022/07/07 09:13:39;;;;;;;2.13;1.93;;;14.70;99.90;15.00;100749.00;;;;4876711;28;99881;-65
2022/07/07 09:16:15;;;;;;;3.33;2.10;;;14.80;99.90;15.10;100736.00;;;;4875469;28;124828;-64
2022/07/07 09:18:43;;;;;;;2.20;2.03;;;14.90;99.90;15.20;100742.00;;;;4886939;28;93803;-64
2022/07/07 09:21:28;;;;;;;2.17;1.87;;;15.00;99.90;15.30;100735.00;;;;4882244;28;93069;-64
2022/07/07 09:23:58;;;;;;;3.77;2.57;;;15.20;99.90;15.50;100740.00;;;;4877316;28;93143;-64
2022/07/07 09:26:44;;;;;;;4.10;3.42;;;15.30;99.90;15.60;100737.00;;;;4876407;28;94030;-64
2022/07/07 09:29:22;;;;;;;2.73;2.53;;;15.40;99.90;15.70;100735.00;;;;4890385;28;92940;-63
2022/07/07 09:31:55;;;;;;;2.28;1.75;;;15.50;99.90;15.70;100745.00;;;;4875992;28;94454;-63
2022/07/07 09:34:26;;;;;;;2.47;1.60;;;15.60;99.90;15.80;100753.00;;;;4896084;28;93018;-64
2022/07/07 09:39:45;;;;;;;2.13;1.92;;;15.70;99.90;15.80;100746.00;;;;4891385;28;92749;-64
2022/07/07 09:42:30;;;;;;;1.77;1.55;;;15.70;99.90;15.90;100738.00;;;;4895664;28;92879;-64
2022/07/07 09:45:08;;;;;;;2.83;2.35;;;15.80;99.90;15.90;100735.00;;;;4877068;28;93825;-63
2022/07/07 09:47:34;;;;;;;3.03;2.72;;;15.80;99.90;15.90;100729.00;;;;4879664;28;94358;-63
2022/07/07 09:50:13;;;;;;;2.23;2.10;;;15.70;99.90;15.80;100737.00;;;;4875961;28;93630;-63
2022/07/07 09:52:47;;;;;;;3.47;2.95;;;15.70;99.90;15.70;100737.00;;;;4877656;28;92964;-62
2022/07/07 09:55:14;;;;;;;2.75;2.53;;;15.60;99.90;15.60;100740.00;;;;4876721;28;92757;-61
2022/07/07 09:57:42;;;;;;;2.05;1.67;;;15.50;99.90;15.60;100738.00;;;;4895981;28;94302;-62
2022/07/07 10:00:09;;;;;;;2.67;2.47;;;15.50;99.90;15.60;100735.00;;;;4893308;28;94205;-61
2022/07/07 10:02:36;;;;;;;2.78;2.53;;;15.50;99.90;15.60;100741.00;;;;4892446;28;96325;-61
2022/07/07 10:05:05;;;;;;;1.85;1.75;;;15.50;99.90;15.60;100738.00;;;;4881027;28;93061;-62
2022/07/07 10:07:32;;;;;;;2.58;2.38;;;15.50;99.90;15.70;100747.00;;;;4895122;28;94148;-61
2022/07/07 10:10:08;;;;;;;2.45;2.10;;;15.50;99.90;15.80;100748.00;;;;4879938;28;113599;-61
2022/07/07 10:12:46;;;;;;;2.15;1.95;;;15.60;99.90;15.80;100741.00;;;;4876877;28;92841;-62
2022/07/07 10:15:13;;;;;;;2.63;2.17;;;15.60;99.90;15.80;100744.00;;;;4876407;28;92733;-60
2022/07/07 10:17:41;;;;;;;1.70;1.60;;;15.70;99.90;15.80;100734.00;;;;4876130;28;99593;-62
2022/07/07 10:20:08;;;;;;;1.88;1.70;;;15.70;99.90;15.80;100741.00;;;;4879031;28;109443;-62
2022/07/07 10:22:35;;;;;;;2.22;2.03;;;15.70;99.90;15.80;100741.00;;;;4895922;28;92712;-61
2022/07/07 10:25:05;;;;;;;1.85;1.75;;;15.60;99.90;15.80;100740.00;;;;4893363;28;93099;-62
2022/07/07 10:27:31;;;;;;;2.63;2.42;;;15.60;99.90;15.80;100738.00;;;;4895233;28;92411;-62
2022/07/07 10:30:02;;;;;;;3.15;1.73;;;15.70;99.90;15.90;100740.00;;;;4891823;28;120453;-61
2022/07/07 10:32:50;;;;;;;2.78;2.03;;;15.70;99.90;15.90;100740.00;;;;4875150;28;96123;-62
2022/07/07 10:35:17;;;;;;;2.28;2.10;;;15.80;99.90;15.90;100734.00;;;;4886495;28;99562;-62
2022/07/07 10:37:53;;;;;;;3.25;1.58;;;15.80;99.90;15.90;100729.00;;;;4894744;28;104933;-62
2022/07/07 10:40:29;;;;;;;1.40;1.30;;;15.80;99.90;16.00;100741.00;;;;4893272;28;116215;-61
2022/07/07 10:43:07;;;;;;;1.85;1.73;;;15.90;99.90;16.00;100734.00;;;;4892408;28;99460;-62
2022/07/07 10:45:33;;;;;;;3.17;1.77;;;15.90;99.90;16.00;100735.00;;;;4894837;28;92865;-63
2022/07/07 10:47:59;;;;;;;2.47;1.42;;;15.90;99.90;15.90;100735.00;;;;4894879;28;93120;-62